Terminal Aerodrome Forecast
Issued by NWS

Home | Current Version | Previous Version | Text Only | Print | Product List | Glossary On
Versions: 1 2 3 4 5 6 7 8 9 10 11 12 13 14 15 16 17 18
688
FTUS43 KAPX 260524
TAFPLN
TAF
KPLN 260524Z 2606/2706 11011G20KT P6SM -FZRA SCT018 BKN025
     FM261100 10010G20KT 3SM -RA BR OVC012
     FM261400 11010G20KT 2SM BR VCSH OVC008
     FM261800 10009KT 1 1/2SM BR VCSH OVC008
     FM262200 09007KT 1/2SM -RA FG OVC003
     FM270000 08006KT 3/4SM -SHRA BR OVC003=

USA.gov is the U.S. government's official web portal to all federal, state and local government web resources and services.